createdAt,value
2017-09-21T00:06:06.936Z,1013.8
2017-09-21T00:16:20.239Z,1013.8
2017-09-21T00:26:34.052Z,1013.8
2017-09-21T00:36:48.904Z,1013.7
2017-09-21T00:47:03.627Z,1013.7
2017-09-21T00:57:17.574Z,1013.7
2017-09-21T01:07:30.757Z,1013.7
2017-09-21T01:17:44.851Z,1013.7
2017-09-21T01:27:58.849Z,1013.9
2017-09-21T01:38:12.268Z,1013.8
2017-09-21T01:48:25.560Z,1013.9
2017-09-21T01:58:40.081Z,1013.8
2017-09-21T02:08:50.291Z,1013.8
2017-09-21T02:19:04.818Z,1013.8
2017-09-21T02:29:18.273Z,1013.8
2017-09-21T02:39:32.144Z,1013.7
2017-09-21T02:49:45.355Z,1013.7
2017-09-21T02:59:59.951Z,1013.7
2017-09-21T03:10:14.410Z,1013.7
2017-09-21T03:20:28.168Z,1013.7
2017-09-21T03:30:43.059Z,1013.8
2017-09-21T03:40:56.098Z,1013.7
2017-09-21T03:51:09.408Z,1013.6
2017-09-21T04:01:23.686Z,1013.6
2017-09-21T04:11:36.809Z,1013.6
2017-09-21T04:21:47.021Z,1013.6
2017-09-21T04:32:01.403Z,1013.7
2017-09-21T04:42:15.391Z,1013.8
2017-09-21T04:52:29.502Z,1013.9
2017-09-21T05:02:43.517Z,1014
2017-09-21T05:12:56.944Z,1013.9
2017-09-21T05:23:10.278Z,1013.9
2017-09-21T05:33:24.110Z,1013.9
2017-09-21T05:43:38.868Z,1014
2017-09-21T05:53:53.850Z,1014
2017-09-21T06:04:07.306Z,1014.1
2017-09-21T06:14:21.628Z,1014.1
2017-09-21T06:24:36.047Z,1014.1
2017-09-21T06:34:46.380Z,1014.2
2017-09-21T06:45:00.158Z,1014.2
2017-09-21T06:55:14.230Z,1014.3
2017-09-21T07:05:27.440Z,1014.4
2017-09-21T07:15:41.208Z,1014.4
2017-09-21T07:25:55.287Z,1014.4
2017-09-21T07:36:09.632Z,1014.5
2017-09-21T07:46:23.844Z,1014.6
2017-09-21T07:56:38.269Z,1014.6
2017-09-21T08:06:53.190Z,1014.7
2017-09-21T08:17:07.507Z,1014.7
2017-09-21T08:27:21.537Z,1014.8
2017-09-21T08:37:36.352Z,1014.7
2017-09-21T08:47:46.713Z,1014.6
2017-09-21T08:58:01.812Z,1014.6
2017-09-21T09:08:16.640Z,1014.5
2017-09-21T09:18:31.106Z,1014.5
2017-09-21T09:28:44.642Z,1014.5
2017-09-21T09:38:59.467Z,1014.4
2017-09-21T09:49:13.147Z,1014.4
2017-09-21T09:59:27.365Z,1014.3
2017-09-21T10:09:41.214Z,1014.4
2017-09-21T10:19:55.840Z,1014.3
2017-09-21T10:30:10.805Z,1014.6
2017-09-21T10:40:25.708Z,1014.3
2017-09-21T10:50:40.365Z,1014.1
2017-09-21T11:00:50.779Z,1014
2017-09-21T11:11:04.458Z,1014.1
2017-09-21T11:21:18.527Z,1014
2017-09-21T11:31:41.542Z,1014
2017-09-21T11:41:46.597Z,1013.9
2017-09-21T11:52:00.582Z,1013.8
2017-09-21T12:02:15.800Z,1013.9
2017-09-21T12:12:30.905Z,1013.6
2017-09-21T12:22:45.493Z,1013.5
2017-09-21T12:32:58.849Z,1013.6
2017-09-21T12:43:13.958Z,1013.4
2017-09-21T12:53:27.956Z,1013.3
2017-09-21T13:03:41.945Z,1013.3
2017-09-21T13:13:52.396Z,1013.2
2017-09-21T13:24:06.224Z,1013.2
2017-09-21T13:34:20.604Z,1013.2
2017-09-21T13:44:34.842Z,1013.3
2017-09-21T13:54:48.789Z,1013.3
2017-09-21T14:05:02.867Z,1013.4
2017-09-21T14:15:17.092Z,1013.2
2017-09-21T14:25:31.095Z,1013
2017-09-21T14:35:46.290Z,1013
2017-09-21T14:46:00.317Z,1012.9
2017-09-21T14:56:15.132Z,1012.9
2017-09-21T15:06:29.433Z,1012.9
2017-09-21T15:16:43.384Z,1012.9
2017-09-21T15:26:53.813Z,1012.7
2017-09-21T15:37:07.889Z,1012.7
2017-09-21T15:47:22.625Z,1012.7
2017-09-21T15:57:36.455Z,1012.8
2017-09-21T16:07:51.564Z,1012.7
2017-09-21T16:18:06.365Z,1012.8
2017-09-21T16:28:19.658Z,1012.7
2017-09-21T16:38:34.295Z,1012.7
2017-09-21T16:48:47.999Z,1012.7
2017-09-21T16:59:02.930Z,1012.7
2017-09-21T17:09:16.863Z,1012.7
2017-09-21T17:19:30.482Z,1012.7
2017-09-21T17:29:44.033Z,1012.8
2017-09-21T17:39:54.298Z,1012.8
2017-09-21T17:50:08.857Z,1012.9
2017-09-21T18:00:23.024Z,1012.9
2017-09-21T18:10:37.693Z,1013
2017-09-21T18:20:52.623Z,1012.9
2017-09-21T18:31:06.866Z,1013
2017-09-21T18:41:20.521Z,1013
2017-09-21T18:51:35.374Z,1013
2017-09-21T19:01:48.584Z,1013.1
2017-09-21T19:12:03.257Z,1013.1
2017-09-21T19:22:16.853Z,1013.1
2017-09-21T19:32:30.313Z,1013.1
2017-09-21T19:42:43.808Z,1013.1
2017-09-21T19:52:54.049Z,1013.1
2017-09-21T20:03:07.632Z,1013
2017-09-21T20:13:22.482Z,1013.1
2017-09-21T20:23:35.729Z,1013.1
2017-09-21T20:33:50.327Z,1013.1
2017-09-21T20:44:05.304Z,1013.1
2017-09-21T20:54:18.921Z,1013.1
2017-09-21T21:04:33.511Z,1013.2
2017-09-21T21:14:48.140Z,1013.1
2017-09-21T21:25:01.291Z,1013.1
2017-09-21T21:35:15.585Z,1013.2
2017-09-21T21:45:28.814Z,1013.2
2017-09-21T21:55:43.711Z,1013.2
2017-09-21T22:05:53.942Z,1013.2
2017-09-21T22:16:08.902Z,1013.2
2017-09-21T22:26:22.540Z,1013.2
2017-09-21T22:36:37.553Z,1013.2
2017-09-21T22:46:51.818Z,1013.2
2017-09-21T22:57:05.701Z,1013.2
2017-09-21T23:07:20.198Z,1013.1
2017-09-21T23:17:33.893Z,1013.1
2017-09-21T23:27:48.586Z,1013.1
2017-09-21T23:38:01.851Z,1013.2
2017-09-21T23:48:16.771Z,1013.2
2017-09-21T23:58:30.160Z,1013.1
